createdAt,value
2023-01-13T00:00:09.279Z,1.60
2023-01-13T00:06:47.248Z,1.50
2023-01-13T00:12:50.206Z,1.30
2023-01-13T00:18:53.035Z,1.60
2023-01-13T00:25:01.458Z,1.50
2023-01-13T00:31:09.308Z,1.40
2023-01-13T00:37:21.032Z,1.70
2023-01-13T00:43:24.089Z,1.30
2023-01-13T00:49:26.995Z,1.20
2023-01-13T00:55:33.105Z,1.20
2023-01-13T01:01:36.140Z,1.30
2023-01-13T01:07:38.965Z,1.10
2023-01-13T01:13:42.491Z,1.00
2023-01-13T01:19:45.409Z,1.40
2023-01-13T01:25:48.296Z,1.20
2023-01-13T01:31:51.209Z,1.40
2023-01-13T01:37:53.998Z,1.80
2023-01-13T01:43:59.823Z,1.40
2023-01-13T01:50:04.465Z,0.80
2023-01-13T01:56:09.344Z,1.00
2023-01-13T02:02:12.832Z,0.80
2023-01-13T02:08:18.140Z,1.00
2023-01-13T02:14:27.070Z,1.30
2023-01-13T02:20:48.550Z,1.30
2023-01-13T02:27:13.548Z,1.10
2023-01-13T02:33:41.812Z,1.10
2023-01-13T02:40:20.437Z,1.10
2023-01-13T02:46:58.263Z,1.00
2023-01-13T02:53:10.084Z,1.30
2023-01-13T02:59:13.125Z,1.20
2023-01-13T03:05:17.220Z,0.90
2023-01-13T03:11:21.297Z,1.00
2023-01-13T03:17:34.216Z,1.00
2023-01-13T03:23:49.267Z,1.10
2023-01-13T03:30:01.150Z,1.00
2023-01-13T03:36:08.558Z,0.90
2023-01-13T03:42:17.218Z,0.70
2023-01-13T03:48:23.045Z,0.90
2023-01-13T03:54:28.603Z,0.80
2023-01-13T04:00:39.219Z,0.80
2023-01-13T04:07:01.574Z,0.90
2023-01-13T04:13:12.994Z,0.90
2023-01-13T04:19:15.768Z,0.80
2023-01-13T04:25:27.570Z,0.90
2023-01-13T04:31:30.444Z,0.70
2023-01-13T04:37:33.573Z,0.90
2023-01-13T04:43:36.580Z,0.90
2023-01-13T04:49:41.986Z,0.90
2023-01-13T04:55:44.934Z,0.80
2023-01-13T05:01:52.545Z,1.20
2023-01-13T05:07:55.560Z,1.50
2023-01-13T05:14:17.307Z,0.90
2023-01-13T05:20:20.415Z,1.10
2023-01-13T05:26:32.501Z,0.90
2023-01-13T05:32:35.310Z,0.70
2023-01-13T05:38:38.409Z,0.80
2023-01-13T05:44:41.531Z,0.90
2023-01-13T05:50:51.392Z,1.00
2023-01-13T05:56:54.566Z,0.70
2023-01-13T06:02:57.680Z,1.10
2023-01-13T06:09:00.631Z,0.70
2023-01-13T06:15:03.691Z,1.00
2023-01-13T06:21:06.979Z,0.80
2023-01-13T06:27:10.116Z,1.10
2023-01-13T06:33:15.893Z,1.10
2023-01-13T06:39:21.777Z,1.00
2023-01-13T06:45:29.463Z,1.10
2023-01-13T06:51:34.886Z,1.10
2023-01-13T06:57:49.338Z,1.10
2023-01-13T07:03:52.284Z,1.20
2023-01-13T07:09:55.985Z,0.90
2023-01-13T07:16:03.723Z,0.90
2023-01-13T07:22:09.142Z,1.30
2023-01-13T07:28:15.607Z,1.10
2023-01-13T07:34:18.643Z,1.10
2023-01-13T07:40:21.537Z,1.10
2023-01-13T07:46:24.315Z,0.80
2023-01-13T07:52:27.339Z,1.50
2023-01-13T07:58:30.830Z,1.60
2023-01-13T08:04:34.023Z,1.50
2023-01-13T08:10:37.718Z,1.50
2023-01-13T08:16:41.022Z,1.60
2023-01-13T08:22:44.431Z,1.40
2023-01-13T08:28:47.806Z,1.50
2023-01-13T08:34:50.745Z,1.50
2023-01-13T08:41:01.074Z,1.30
2023-01-13T08:47:04.650Z,1.50
2023-01-13T08:53:07.551Z,1.40
2023-01-13T08:59:15.218Z,1.30
2023-01-13T09:05:18.282Z,1.50
2023-01-13T09:11:47.425Z,1.20
2023-01-13T09:17:50.511Z,1.20
2023-01-13T09:23:53.398Z,1.20
2023-01-13T09:29:56.531Z,1.30
2023-01-13T09:36:01.110Z,1.40
2023-01-13T09:42:35.505Z,1.80
2023-01-13T09:48:52.212Z,1.60
2023-01-13T09:55:14.248Z,1.20
2023-01-13T10:01:32.436Z,1.20
2023-01-13T10:07:40.317Z,0.90
2023-01-13T10:13:43.586Z,1.00
2023-01-13T10:20:24.805Z,1.00
2023-01-13T10:26:42.014Z,1.00
2023-01-13T10:32:48.159Z,1.00
2023-01-13T10:38:51.842Z,1.10
2023-01-13T10:45:00.475Z,1.50
2023-01-13T10:51:25.655Z,1.40
2023-01-13T10:57:28.627Z,1.10
2023-01-13T11:03:40.459Z,1.20
2023-01-13T11:09:43.301Z,1.00
2023-01-13T11:16:05.860Z,1.10
2023-01-13T11:22:19.641Z,0.80
2023-01-13T11:28:46.908Z,0.90
2023-01-13T11:34:54.757Z,0.90
2023-01-13T11:41:05.722Z,0.90
2023-01-13T11:47:10.846Z,1.00
2023-01-13T11:53:16.987Z,0.90
2023-01-13T11:59:45.404Z,1.20
2023-01-13T12:06:11.687Z,1.30
2023-01-13T12:12:44.293Z,0.90
2023-01-13T12:19:04.744Z,1.10
2023-01-13T12:25:32.817Z,0.90
2023-01-13T12:31:37.544Z,1.10
2023-01-13T12:38:12.186Z,1.10
2023-01-13T12:44:17.494Z,1.10
2023-01-13T12:50:44.197Z,1.00
2023-01-13T12:56:47.239Z,1.30
2023-01-13T13:03:12.218Z,1.10
2023-01-13T13:09:26.721Z,1.20
2023-01-13T13:15:34.026Z,1.10
2023-01-13T13:22:14.611Z,1.40
2023-01-13T13:28:19.260Z,1.60
2023-01-13T13:34:34.723Z,1.40
2023-01-13T13:41:04.565Z,1.50
2023-01-13T13:47:08.513Z,1.50
2023-01-13T13:53:12.238Z,1.40
2023-01-13T13:59:21.670Z,1.30
2023-01-13T14:05:54.200Z,1.40
2023-01-13T14:12:09.257Z,1.50
2023-01-13T14:18:21.945Z,1.40
2023-01-13T14:24:25.485Z,1.20
2023-01-13T14:30:28.670Z,1.50
2023-01-13T14:36:37.250Z,1.50
2023-01-13T14:42:40.546Z,1.10
2023-01-13T14:48:47.217Z,1.70
2023-01-13T14:54:57.883Z,1.70
2023-01-13T15:02:06.827Z,1.80
2023-01-13T15:08:17.115Z,1.70
2023-01-13T15:14:29.997Z,1.90
2023-01-13T15:20:33.076Z,1.70
2023-01-13T15:26:36.129Z,1.80
2023-01-13T15:32:39.438Z,1.90
2023-01-13T15:38:43.406Z,2.10
2023-01-13T15:45:05.427Z,1.60
2023-01-13T15:51:11.108Z,2.00
2023-01-13T15:57:26.647Z,2.10
2023-01-13T16:03:31.793Z,1.90
2023-01-13T16:09:35.311Z,2.10
2023-01-13T16:15:43.681Z,1.80
2023-01-13T16:21:49.946Z,1.90
2023-01-13T16:27:54.103Z,2.00
2023-01-13T16:33:59.796Z,2.50
2023-01-13T16:40:05.563Z,2.70
2023-01-13T16:46:26.790Z,2.60
2023-01-13T16:52:31.379Z,2.70
2023-01-13T16:58:37.484Z,3.20
2023-01-13T17:04:45.522Z,2.70
2023-01-13T17:10:50.448Z,2.80
2023-01-13T17:16:55.396Z,2.90
2023-01-13T17:29:09.221Z,3.10
2023-01-13T17:35:17.746Z,3.00
2023-01-13T17:41:29.541Z,3.40
2023-01-13T17:47:47.570Z,3.30
2023-01-13T17:53:53.141Z,2.90
2023-01-13T17:59:59.651Z,2.80
2023-01-13T18:06:04.760Z,2.90
2023-01-13T18:12:07.771Z,2.80
2023-01-13T18:18:12.086Z,2.80
2023-01-13T18:24:36.701Z,2.70
2023-01-13T18:30:39.762Z,3.20
2023-01-13T18:36:42.911Z,2.90
2023-01-13T18:42:51.545Z,3.20
2023-01-13T18:48:56.509Z,3.50
2023-01-13T18:54:59.974Z,3.70
2023-01-13T19:01:10.938Z,3.60
2023-01-13T19:07:22.273Z,3.40
2023-01-13T19:13:26.843Z,3.00
2023-01-13T19:19:29.920Z,3.20
2023-01-13T19:25:35.975Z,3.00
2023-01-13T19:31:38.979Z,3.20
2023-01-13T19:37:43.615Z,3.50
2023-01-13T19:44:06.437Z,3.20
2023-01-13T19:50:10.020Z,3.10
2023-01-13T19:56:14.538Z,3.00
2023-01-13T20:02:28.258Z,2.90
2023-01-13T20:08:35.548Z,3.00
2023-01-13T20:14:38.801Z,2.80
2023-01-13T20:20:41.591Z,2.90
2023-01-13T20:26:46.155Z,3.20
2023-01-13T20:32:49.697Z,3.20
2023-01-13T20:39:01.123Z,2.90
2023-01-13T20:45:05.888Z,2.70
2023-01-13T20:51:12.849Z,2.80
2023-01-13T20:57:18.354Z,3.40
2023-01-13T21:03:23.999Z,3.40
2023-01-13T21:09:27.379Z,3.50
2023-01-13T21:15:32.738Z,3.20
2023-01-13T21:21:35.563Z,3.30
2023-01-13T21:27:38.676Z,3.40
2023-01-13T21:33:45.391Z,3.40
2023-01-13T21:39:48.676Z,3.00
2023-01-13T21:46:12.844Z,3.60
2023-01-13T21:52:25.569Z,3.10
2023-01-13T21:58:32.036Z,2.90
2023-01-13T22:04:36.848Z,3.10
2023-01-13T22:17:04.531Z,1.70
2023-01-13T22:23:09.721Z,1.50
2023-01-13T22:29:15.943Z,1.50
2023-01-13T22:35:24.621Z,1.50
2023-01-13T22:41:28.344Z,1.40
2023-01-13T22:47:33.870Z,1.60
2023-01-13T22:53:42.209Z,1.60
2023-01-13T22:59:50.798Z,1.70
2023-01-13T23:06:08.235Z,1.90
2023-01-13T23:12:14.543Z,2.30
2023-01-13T23:18:20.804Z,1.60
2023-01-13T23:24:26.034Z,1.70
2023-01-13T23:30:36.817Z,1.80
2023-01-13T23:36:43.917Z,1.50
2023-01-13T23:42:46.990Z,1.70
2023-01-13T23:48:50.513Z,1.90
2023-01-13T23:54:54.654Z,1.90
